Time;durP1;ratioP1;P1;durP2;ratioP2;P2;SDS_P1;SDS_P2;PMS_P1;PMS_P2;Temp;Humidity;BMP_temperature;BMP_pressure;BME280_temperature;BME280_humidity;BME280_pressure;Samples;Min_cycle;Max_cycle;Signal;HPM_P1;HPM_P2
2023/12/10 00:01:03;;;;;;;23.77;13.93;;;;;;;;;;5076830;28;20048;-45
2023/12/10 00:03:28;;;;;;;16.52;12.25;;;;;;;;;;5074871;28;20029;-48
2023/12/10 00:05:54;;;;;;;17.88;12.13;;;;;;;;;;5076866;28;20024;-47
2023/12/10 00:08:20;;;;;;;19.88;13.20;;;;;;;;;;5073713;28;20554;-46
2023/12/10 00:10:45;;;;;;;16.88;11.00;;;;;;;;;;5072517;28;20166;-47
2023/12/10 00:13:11;;;;;;;17.90;10.82;;;;;;;;;;5074195;28;20068;-46
2023/12/10 00:15:37;;;;;;;16.88;11.85;;;;;;;;;;5075390;28;20032;-45
2023/12/10 00:18:03;;;;;;;15.05;9.73;;;;;;;;;;5075258;28;20162;-46
2023/12/10 00:20:29;;;;;;;19.30;13.27;;;;;;;;;;5075674;28;20046;-46
2023/12/10 00:22:54;;;;;;;20.92;14.98;;;;;;;;;;5077704;28;20029;-47
2023/12/10 00:25:20;;;;;;;19.10;14.60;;;;;;;;;;5074027;28;20088;-44
2023/12/10 00:27:46;;;;;;;16.13;12.35;;;;;;;;;;5073698;28;20482;-49
2023/12/10 00:30:12;;;;;;;14.90;11.43;;;;;;;;;;5075509;28;20071;-46
2023/12/10 00:32:38;;;;;;;16.60;11.60;;;;;;;;;;5073866;28;20028;-46
2023/12/10 00:35:04;;;;;;;16.15;13.55;;;;;;;;;;5075633;28;20394;-46
2023/12/10 00:37:29;;;;;;;17.30;12.63;;;;;;;;;;5075625;28;20028;-51
2023/12/10 00:39:55;;;;;;;14.95;11.25;;;;;;;;;;5075589;28;20057;-47
2023/12/10 00:42:20;;;;;;;14.18;11.27;;;;;;;;;;5072937;28;20028;-44
2023/12/10 00:44:46;;;;;;;16.75;11.98;;;;;;;;;;5080397;28;20051;-47
2023/12/10 00:47:11;;;;;;;18.15;13.07;;;;;;;;;;5074626;28;20059;-46
2023/12/10 00:49:37;;;;;;;16.60;13.05;;;;;;;;;;5073942;28;20051;-48
2023/12/10 00:52:02;;;;;;;16.80;12.93;;;;;;;;;;5074717;28;20049;-50
2023/12/10 00:54:29;;;;;;;19.38;15.95;;;;;;;;;;5075563;28;20046;-46
2023/12/10 00:56:55;;;;;;;20.63;14.77;;;;;;;;;;5071929;28;20414;-47
2023/12/10 00:59:20;;;;;;;27.67;18.95;;;;;;;;;;5075394;28;20037;-45
2023/12/10 01:01:46;;;;;;;25.23;17.25;;;;;;;;;;5078146;28;20032;-44
2023/12/10 01:04:11;;;;;;;19.90;16.02;;;;;;;;;;5088390;28;20117;-45
2023/12/10 01:06:37;;;;;;;21.00;17.42;;;;;;;;;;5073331;28;20484;-47
2023/12/10 01:09:02;;;;;;;19.20;15.15;;;;;;;;;;5084145;28;20048;-45
2023/12/10 01:11:27;;;;;;;22.60;16.63;;;;;;;;;;5086681;28;20111;-46
2023/12/10 01:13:53;;;;;;;24.75;17.52;;;;;;;;;;5088523;28;20143;-44
2023/12/10 01:16:18;;;;;;;18.20;14.38;;;;;;;;;;5074627;28;20378;-46
2023/12/10 01:18:44;;;;;;;22.08;16.13;;;;;;;;;;5073777;28;20045;-46
2023/12/10 01:21:09;;;;;;;19.48;15.38;;;;;;;;;;5074505;28;20164;-45
2023/12/10 01:23:36;;;;;;;18.63;15.00;;;;;;;;;;5073861;28;20037;-48
2023/12/10 01:26:02;;;;;;;23.85;15.88;;;;;;;;;;5075770;28;20028;-45
2023/12/10 01:28:27;;;;;;;23.02;16.33;;;;;;;;;;5083387;28;20047;-47
2023/12/10 01:30:53;;;;;;;27.10;17.63;;;;;;;;;;5073532;28;20093;-45
2023/12/10 01:33:18;;;;;;;25.20;15.35;;;;;;;;;;5074836;28;20040;-50
2023/12/10 01:35:43;;;;;;;13.23;11.00;;;;;;;;;;5074058;28;20025;-48
2023/12/10 01:38:09;;;;;;;16.35;10.38;;;;;;;;;;5071918;28;20444;-45
2023/12/10 01:40:35;;;;;;;13.85;8.63;;;;;;;;;;5077429;28;20024;-44
2023/12/10 01:43:11;;;;;;;12.93;9.50;;;;;;;;;;5076570;28;22030;-45
2023/12/10 01:45:36;;;;;;;12.30;7.53;;;;;;;;;;5077609;28;20478;-45
2023/12/10 01:48:07;;;;;;;13.40;8.98;;;;;;;;;;5089613;28;20033;-45
2023/12/10 01:50:35;;;;;;;18.92;10.48;;;;;;;;;;5089537;28;20033;-47
2023/12/10 01:53:01;;;;;;;11.50;9.23;;;;;;;;;;5073914;28;20041;-47
2023/12/10 01:55:28;;;;;;;11.52;9.27;;;;;;;;;;5074518;28;20171;-45
2023/12/10 01:57:54;;;;;;;13.45;8.63;;;;;;;;;;5071006;28;20493;-47
2023/12/10 02:00:21;;;;;;;17.10;10.45;;;;;;;;;;5071855;28;20040;-49
2023/12/10 02:02:47;;;;;;;12.27;6.40;;;;;;;;;;5089705;28;20025;-45
2023/12/10 02:05:12;;;;;;;15.48;9.65;;;;;;;;;;5072264;28;20023;-47
2023/12/10 02:07:42;;;;;;;16.38;10.45;;;;;;;;;;5071750;28;20036;-48
2023/12/10 02:10:07;;;;;;;18.13;10.65;;;;;;;;;;5078712;28;20024;-46
2023/12/10 02:12:34;;;;;;;22.60;12.05;;;;;;;;;;5077655;28;20558;-44
2023/12/10 02:15:20;;;;;;;14.35;8.48;;;;;;;;;;5079276;28;20440;-46
2023/12/10 02:17:47;;;;;;;12.88;8.00;;;;;;;;;;5077194;28;20032;-46
2023/12/10 02:20:14;;;;;;;11.55;8.93;;;;;;;;;;5077126;28;20047;-44
2023/12/10 02:23:01;;;;;;;15.35;8.02;;;;;;;;;;5080742;28;20036;-46
2023/12/10 02:25:38;;;;;;;9.48;7.63;;;;;;;;;;5078415;28;20021;-44
2023/12/10 02:28:04;;;;;;;11.48;8.02;;;;;;;;;;5071009;28;20041;-46
2023/12/10 02:30:30;;;;;;;10.88;7.30;;;;;;;;;;5068994;28;20029;-47
2023/12/10 02:32:57;;;;;;;10.43;7.10;;;;;;;;;;5078061;28;20029;-44
2023/12/10 02:35:22;;;;;;;10.73;7.50;;;;;;;;;;5075427;28;20029;-47
2023/12/10 02:37:48;;;;;;;9.70;6.70;;;;;;;;;;5076175;28;20162;-48
2023/12/10 02:40:16;;;;;;;10.60;9.02;;;;;;;;;;5076596;28;20025;-47
2023/12/10 02:42:42;;;;;;;8.30;6.18;;;;;;;;;;5077826;28;20021;-43
2023/12/10 02:45:08;;;;;;;11.70;7.38;;;;;;;;;;5077894;28;20012;-46
2023/12/10 02:47:33;;;;;;;6.70;6.00;;;;;;;;;;5075920;28;20036;-47
2023/12/10 02:49:59;;;;;;;9.93;6.97;;;;;;;;;;5077636;28;20024;-46
2023/12/10 02:52:24;;;;;;;10.20;6.57;;;;;;;;;;5077792;28;20558;-47
2023/12/10 02:54:49;;;;;;;11.18;8.63;;;;;;;;;;5073946;28;20521;-47
2023/12/10 02:57:15;;;;;;;7.85;4.63;;;;;;;;;;5077838;28;20032;-45
2023/12/10 02:59:40;;;;;;;11.07;8.73;;;;;;;;;;5078825;28;20038;-47
2023/12/10 03:02:06;;;;;;;14.40;8.43;;;;;;;;;;5075631;28;20062;-50
2023/12/10 03:04:31;;;;;;;10.38;6.38;;;;;;;;;;5072432;28;20037;-49
2023/12/10 03:06:56;;;;;;;8.48;6.38;;;;;;;;;;5076955;28;20114;-47
2023/12/10 03:09:22;;;;;;;6.10;4.43;;;;;;;;;;5076836;28;20043;-48
2023/12/10 03:11:47;;;;;;;5.78;5.10;;;;;;;;;;5073721;28;20162;-51
2023/12/10 03:14:12;;;;;;;8.68;5.55;;;;;;;;;;5076764;28;20041;-50
2023/12/10 03:16:38;;;;;;;6.93;4.85;;;;;;;;;;5077427;28;20537;-48
2023/12/10 03:19:04;;;;;;;7.97;6.28;;;;;;;;;;5078563;28;20032;-48
2023/12/10 03:21:29;;;;;;;6.18;5.57;;;;;;;;;;5077884;28;20052;-46
2023/12/10 03:23:54;;;;;;;8.02;5.95;;;;;;;;;;5077032;28;20088;-47
2023/12/10 03:26:20;;;;;;;7.80;5.05;;;;;;;;;;5073851;28;20028;-47
2023/12/10 03:28:45;;;;;;;6.65;5.55;;;;;;;;;;5054424;28;20108;-48
2023/12/10 03:31:10;;;;;;;6.80;5.18;;;;;;;;;;5076827;28;20044;-48
2023/12/10 03:33:36;;;;;;;8.38;5.85;;;;;;;;;;5074410;28;20040;-45
2023/12/10 03:36:02;;;;;;;6.45;5.22;;;;;;;;;;5077314;28;20024;-46
2023/12/10 03:38:27;;;;;;;6.13;4.50;;;;;;;;;;5073737;28;20024;-45
2023/12/10 03:40:53;;;;;;;8.20;4.40;;;;;;;;;;5076977;28;20603;-45
2023/12/10 03:43:18;;;;;;;6.40;4.95;;;;;;;;;;5080650;28;20032;-47
2023/12/10 03:45:43;;;;;;;6.75;5.57;;;;;;;;;;5077143;28;20027;-45
2023/12/10 03:48:09;;;;;;;6.43;4.40;;;;;;;;;;5079438;28;20139;-45
2023/12/10 03:50:34;;;;;;;6.75;4.45;;;;;;;;;;5079696;28;20633;-46
2023/12/10 03:53:00;;;;;;;7.95;3.67;;;;;;;;;;5083614;28;20044;-45
2023/12/10 03:55:25;;;;;;;5.45;4.63;;;;;;;;;;5076334;28;20020;-46
2023/12/10 03:57:50;;;;;;;5.25;3.65;;;;;;;;;;5075091;28;20093;-48
2023/12/10 04:00:17;;;;;;;6.55;3.17;;;;;;;;;;5071875;28;20043;-45
2023/12/10 04:02:42;;;;;;;4.13;2.95;;;;;;;;;;5076168;28;20039;-44
2023/12/10 04:05:11;;;;;;;9.25;3.53;;;;;;;;;;5077406;28;20469;-45
2023/12/10 04:07:38;;;;;;;5.07;3.83;;;;;;;;;;5075091;28;20040;-49
2023/12/10 04:10:04;;;;;;;6.10;3.60;;;;;;;;;;5074436;28;20051;-46
2023/12/10 04:12:32;;;;;;;6.55;3.22;;;;;;;;;;5076803;28;20032;-46
2023/12/10 04:14:57;;;;;;;5.90;2.95;;;;;;;;;;5072265;28;20032;-47
2023/12/10 04:17:23;;;;;;;5.00;2.63;;;;;;;;;;5076055;28;20104;-48
2023/12/10 04:19:49;;;;;;;5.47;3.38;;;;;;;;;;5076213;28;20102;-45
2023/12/10 04:22:14;;;;;;;4.53;3.08;;;;;;;;;;5074898;28;20020;-45
2023/12/10 04:24:39;;;;;;;3.10;2.30;;;;;;;;;;5081163;28;20115;-46
2023/12/10 04:27:05;;;;;;;5.68;3.03;;;;;;;;;;5076042;28;20023;-48
2023/12/10 04:29:30;;;;;;;5.78;4.70;;;;;;;;;;5074685;28;20044;-46
2023/12/10 04:31:56;;;;;;;5.05;3.30;;;;;;;;;;5071373;28;20058;-45
2023/12/10 04:34:21;;;;;;;8.27;4.32;;;;;;;;;;5075339;28;20040;-46
2023/12/10 04:36:47;;;;;;;4.05;2.30;;;;;;;;;;5074268;28;20389;-46
2023/12/10 04:39:12;;;;;;;5.10;2.88;;;;;;;;;;5074575;28;20047;-48
2023/12/10 04:41:38;;;;;;;5.72;3.40;;;;;;;;;;5074704;28;20036;-49
2023/12/10 04:44:03;;;;;;;5.40;3.30;;;;;;;;;;5074734;28;20123;-48
2023/12/10 04:46:29;;;;;;;3.53;2.60;;;;;;;;;;5072985;28;20028;-47
2023/12/10 04:48:54;;;;;;;4.47;3.08;;;;;;;;;;5071660;28;20048;-49
2023/12/10 04:51:21;;;;;;;5.55;2.75;;;;;;;;;;5075570;28;20060;-50
2023/12/10 04:53:46;;;;;;;4.07;3.33;;;;;;;;;;5074971;28;20082;-47
2023/12/10 04:56:11;;;;;;;6.63;3.65;;;;;;;;;;5075351;28;20033;-47
2023/12/10 04:58:37;;;;;;;5.28;2.40;;;;;;;;;;5074401;28;20064;-52
2023/12/10 05:01:03;;;;;;;4.50;2.88;;;;;;;;;;5075848;28;20551;-45
2023/12/10 05:03:29;;;;;;;3.67;2.72;;;;;;;;;;5074939;28;20040;-49
2023/12/10 05:05:55;;;;;;;5.55;2.83;;;;;;;;;;5086961;28;20035;-52
2023/12/10 05:08:20;;;;;;;4.70;2.20;;;;;;;;;;5074226;28;20041;-46
2023/12/10 05:10:46;;;;;;;3.88;2.50;;;;;;;;;;5075364;28;20031;-46
2023/12/10 05:13:11;;;;;;;5.97;3.08;;;;;;;;;;5077484;28;20482;-48
2023/12/10 05:15:37;;;;;;;7.15;5.20;;;;;;;;;;5075800;28;20462;-47
2023/12/10 05:18:05;;;;;;;11.15;7.00;;;;;;;;;;5076273;28;20102;-49
2023/12/10 05:20:30;;;;;;;11.68;6.78;;;;;;;;;;5072672;28;20032;-49
2023/12/10 05:23:00;;;;;;;9.27;7.20;;;;;;;;;;5074802;28;20032;-49
2023/12/10 05:25:27;;;;;;;10.50;7.22;;;;;;;;;;5073464;28;20016;-47
2023/12/10 05:27:54;;;;;;;12.50;7.80;;;;;;;;;;5076997;28;20393;-49
2023/12/10 05:30:19;;;;;;;9.80;4.93;;;;;;;;;;5074826;28;20600;-47
2023/12/10 05:32:44;;;;;;;8.45;5.90;;;;;;;;;;5056912;28;20020;-47
2023/12/10 05:35:10;;;;;;;11.35;7.80;;;;;;;;;;5074590;28;20024;-46
2023/12/10 05:37:35;;;;;;;10.30;7.55;;;;;;;;;;5072471;28;20033;-50
2023/12/10 05:40:00;;;;;;;12.48;9.45;;;;;;;;;;5073174;28;20128;-47
2023/12/10 05:42:27;;;;;;;10.73;8.00;;;;;;;;;;5078612;28;20150;-48
2023/12/10 05:44:54;;;;;;;9.50;8.38;;;;;;;;;;5078685;28;20036;-46
2023/12/10 05:47:19;;;;;;;9.93;7.97;;;;;;;;;;5079030;28;20462;-45
2023/12/10 05:49:44;;;;;;;11.07;8.82;;;;;;;;;;5077486;28;21529;-50
2023/12/10 05:52:10;;;;;;;13.52;7.72;;;;;;;;;;5078955;28;20613;-45
2023/12/10 05:54:35;;;;;;;9.25;7.53;;;;;;;;;;5077541;28;20489;-46
2023/12/10 05:57:01;;;;;;;5.90;5.13;;;;;;;;;;5077565;28;20024;-46
2023/12/10 05:59:26;;;;;;;7.00;6.18;;;;;;;;;;5076039;28;20834;-44
2023/12/10 06:01:51;;;;;;;7.80;6.13;;;;;;;;;;5078869;28;20474;-47
2023/12/10 06:04:17;;;;;;;7.70;6.15;;;;;;;;;;5060468;28;20115;-47
2023/12/10 06:06:42;;;;;;;6.45;5.70;;;;;;;;;;5079004;28;20028;-47
2023/12/10 06:09:09;;;;;;;6.18;5.05;;;;;;;;;;5073682;28;20029;-47
2023/12/10 06:11:34;;;;;;;6.95;5.85;;;;;;;;;;5077501;28;20032;-45
2023/12/10 06:14:00;;;;;;;7.60;5.65;;;;;;;;;;5078334;28;20539;-45
2023/12/10 06:16:25;;;;;;;7.22;6.45;;;;;;;;;;5078426;28;20021;-46
2023/12/10 06:18:50;;;;;;;8.85;6.57;;;;;;;;;;5077947;28;20036;-45
2023/12/10 06:21:16;;;;;;;10.68;6.43;;;;;;;;;;5088472;28;20033;-48
2023/12/10 06:23:41;;;;;;;7.32;5.80;;;;;;;;;;5084166;28;20098;-48
2023/12/10 06:26:06;;;;;;;11.43;8.05;;;;;;;;;;5077841;28;20085;-45
2023/12/10 06:28:32;;;;;;;7.63;6.82;;;;;;;;;;5078998;28;20032;-45
2023/12/10 06:30:58;;;;;;;12.65;9.05;;;;;;;;;;5068651;28;20028;-46
2023/12/10 06:33:23;;;;;;;10.82;8.30;;;;;;;;;;5078237;28;20040;-46
2023/12/10 06:35:48;;;;;;;14.45;8.95;;;;;;;;;;5078175;28;20027;-45
2023/12/10 06:38:14;;;;;;;11.60;9.45;;;;;;;;;;5076266;28;20071;-45
2023/12/10 06:40:39;;;;;;;12.43;9.13;;;;;;;;;;5076685;28;20104;-47
2023/12/10 06:43:05;;;;;;;12.27;8.18;;;;;;;;;;5073589;28;20033;-47
2023/12/10 06:45:30;;;;;;;8.60;6.50;;;;;;;;;;5077684;28;20444;-45
2023/12/10 06:47:55;;;;;;;6.15;5.38;;;;;;;;;;5077839;28;20536;-45
2023/12/10 06:50:21;;;;;;;8.45;6.03;;;;;;;;;;5076748;28;20025;-46
2023/12/10 06:52:46;;;;;;;7.65;5.18;;;;;;;;;;5077805;28;20049;-47
2023/12/10 06:55:12;;;;;;;6.25;5.53;;;;;;;;;;5076961;28;20036;-47
2023/12/10 06:57:37;;;;;;;7.90;6.40;;;;;;;;;;5079918;28;22387;-43
2023/12/10 07:00:04;;;;;;;6.22;5.22;;;;;;;;;;5080251;28;20036;-47
2023/12/10 07:02:29;;;;;;;9.02;7.28;;;;;;;;;;5078104;28;20028;-47
2023/12/10 07:04:55;;;;;;;13.00;9.55;;;;;;;;;;5079462;28;20516;-46
2023/12/10 07:07:20;;;;;;;11.32;8.43;;;;;;;;;;5073447;28;20032;-46
2023/12/10 07:09:45;;;;;;;16.60;10.73;;;;;;;;;;5075982;28;21287;-46
2023/12/10 07:12:11;;;;;;;7.63;6.00;;;;;;;;;;5074507;28;20031;-46
2023/12/10 07:14:36;;;;;;;6.85;6.07;;;;;;;;;;5077930;28;20036;-47
2023/12/10 07:17:02;;;;;;;8.43;4.63;;;;;;;;;;5079345;28;20032;-45
2023/12/10 07:19:27;;;;;;;7.38;6.07;;;;;;;;;;5075880;28;20044;-46
2023/12/10 07:21:55;;;;;;;7.18;4.80;;;;;;;;;;5075094;28;20374;-47
2023/12/10 07:24:21;;;;;;;9.30;6.95;;;;;;;;;;5081964;28;20029;-47
2023/12/10 07:26:47;;;;;;;12.13;10.48;;;;;;;;;;5076007;28;20029;-48
2023/12/10 07:29:13;;;;;;;7.55;4.22;;;;;;;;;;5076359;28;20036;-47
2023/12/10 07:31:38;;;;;;;8.18;4.75;;;;;;;;;;5076598;28;20028;-48
2023/12/10 07:34:04;;;;;;;9.20;5.80;;;;;;;;;;5076878;28;20043;-45
2023/12/10 07:36:29;;;;;;;7.32;4.95;;;;;;;;;;5074082;28;20116;-46
2023/12/10 07:38:55;;;;;;;7.97;4.97;;;;;;;;;;5073296;28;20124;-49
2023/12/10 07:41:21;;;;;;;10.70;9.57;;;;;;;;;;5076338;28;20032;-45
2023/12/10 07:43:47;;;;;;;12.52;11.48;;;;;;;;;;5078988;28;20089;-45
2023/12/10 07:46:12;;;;;;;6.97;4.85;;;;;;;;;;5087270;28;20114;-48
2023/12/10 07:48:38;;;;;;;7.22;6.28;;;;;;;;;;5078472;28;20071;-47
2023/12/10 07:51:03;;;;;;;7.28;4.93;;;;;;;;;;5074253;28;20028;-48
2023/12/10 07:53:29;;;;;;;9.35;8.43;;;;;;;;;;5075967;28;20036;-47
2023/12/10 07:55:54;;;;;;;7.57;6.60;;;;;;;;;;5081547;28;20042;-44
2023/12/10 07:58:22;;;;;;;7.88;7.07;;;;;;;;;;5077322;28;20033;-47
2023/12/10 08:00:47;;;;;;;9.60;5.05;;;;;;;;;;5073880;28;20111;-45
2023/12/10 08:03:14;;;;;;;5.38;4.20;;;;;;;;;;5078490;28;20067;-46
2023/12/10 08:05:39;;;;;;;9.20;5.25;;;;;;;;;;5077656;28;20021;-45
2023/12/10 08:08:05;;;;;;;8.20;5.93;;;;;;;;;;5071148;28;20059;-45
2023/12/10 08:10:30;;;;;;;8.70;5.93;;;;;;;;;;5090680;28;20082;-46
2023/12/10 08:12:56;;;;;;;5.68;4.63;;;;;;;;;;5072662;28;20036;-45
2023/12/10 08:15:21;;;;;;;13.90;10.45;;;;;;;;;;5076893;28;20032;-45
2023/12/10 08:17:47;;;;;;;14.73;12.07;;;;;;;;;;5088992;28;20543;-47
2023/12/10 08:20:12;;;;;;;8.57;7.75;;;;;;;;;;5075585;28;20042;-48
2023/12/10 08:22:38;;;;;;;8.48;6.43;;;;;;;;;;5074755;28;20039;-47
2023/12/10 08:25:04;;;;;;;8.43;5.97;;;;;;;;;;5075121;28;20049;-46
2023/12/10 08:27:30;;;;;;;7.25;5.70;;;;;;;;;;5073663;28;20032;-45
2023/12/10 08:29:55;;;;;;;14.90;9.63;;;;;;;;;;5080730;28;20486;-49
2023/12/10 08:32:21;;;;;;;11.82;9.60;;;;;;;;;;5078381;28;20469;-44
2023/12/10 08:34:46;;;;;;;9.32;8.30;;;;;;;;;;5073947;28;20040;-48
2023/12/10 08:37:12;;;;;;;9.98;6.88;;;;;;;;;;5075553;28;20048;-47
2023/12/10 08:39:38;;;;;;;16.48;12.95;;;;;;;;;;5073126;28;20025;-49
2023/12/10 08:42:03;;;;;;;15.38;13.07;;;;;;;;;;5075531;28;20551;-46
2023/12/10 08:44:29;;;;;;;16.38;9.65;;;;;;;;;;5074050;28;20040;-48
2023/12/10 08:46:54;;;;;;;11.40;8.20;;;;;;;;;;5078818;28;20028;-45
2023/12/10 08:49:20;;;;;;;13.65;7.68;;;;;;;;;;5074821;28;20106;-45
2023/12/10 08:51:45;;;;;;;12.35;8.15;;;;;;;;;;5073024;28;20051;-47
2023/12/10 08:54:10;;;;;;;9.98;8.73;;;;;;;;;;5089918;28;20045;-46
2023/12/10 08:56:36;;;;;;;11.35;6.82;;;;;;;;;;5076278;28;20024;-46
2023/12/10 08:59:03;;;;;;;9.13;6.07;;;;;;;;;;5089700;28;20032;-48
2023/12/10 09:01:28;;;;;;;10.38;6.43;;;;;;;;;;5071516;28;20028;-45
2023/12/10 09:03:53;;;;;;;7.55;6.53;;;;;;;;;;5075285;28;20395;-47
2023/12/10 09:06:19;;;;;;;11.10;8.50;;;;;;;;;;5074690;28;20032;-47
2023/12/10 09:08:44;;;;;;;11.45;7.78;;;;;;;;;;5073263;28;20033;-45
2023/12/10 09:11:10;;;;;;;11.73;6.90;;;;;;;;;;5075236;28;20526;-45
2023/12/10 09:13:35;;;;;;;7.07;5.97;;;;;;;;;;5075084;28;20101;-46
2023/12/10 09:16:01;;;;;;;12.50;7.22;;;;;;;;;;5070508;28;20087;-45
2023/12/10 09:18:27;;;;;;;13.85;7.15;;;;;;;;;;5070728;28;20047;-47
2023/12/10 09:20:52;;;;;;;9.40;7.28;;;;;;;;;;5070963;28;20043;-48
2023/12/10 09:23:18;;;;;;;11.52;7.20;;;;;;;;;;5065957;28;20225;-47
2023/12/10 09:25:44;;;;;;;13.95;7.10;;;;;;;;;;5071397;28;20455;-44
2023/12/10 09:28:09;;;;;;;11.25;6.25;;;;;;;;;;5064840;28;20071;-47
2023/12/10 09:30:35;;;;;;;10.35;6.85;;;;;;;;;;5070289;28;20016;-49
2023/12/10 09:33:00;;;;;;;9.00;7.35;;;;;;;;;;5068966;28;20047;-49
2023/12/10 09:35:25;;;;;;;8.48;7.32;;;;;;;;;;5070731;28;20035;-46
2023/12/10 09:37:51;;;;;;;7.38;6.60;;;;;;;;;;5088449;28;20035;-48
2023/12/10 09:40:16;;;;;;;13.25;8.48;;;;;;;;;;5067803;28;20032;-44
2023/12/10 09:42:42;;;;;;;9.00;6.75;;;;;;;;;;5088717;28;20111;-46
2023/12/10 09:45:08;;;;;;;8.85;6.85;;;;;;;;;;5067553;28;20032;-45
2023/12/10 09:47:34;;;;;;;7.65;6.93;;;;;;;;;;5068231;28;20099;-48
2023/12/10 09:50:00;;;;;;;8.45;6.55;;;;;;;;;;5064083;28;20514;-46
2023/12/10 09:52:25;;;;;;;9.80;7.30;;;;;;;;;;5064996;28;20072;-45
2023/12/10 09:54:53;;;;;;;11.02;5.95;;;;;;;;;;5065635;28;20037;-45
2023/12/10 09:57:19;;;;;;;9.52;6.72;;;;;;;;;;5064938;28;20047;-48
2023/12/10 09:59:44;;;;;;;10.30;6.55;;;;;;;;;;5066707;28;20043;-45
2023/12/10 10:02:10;;;;;;;9.02;6.68;;;;;;;;;;5081295;28;20033;-48
2023/12/10 10:04:39;;;;;;;11.32;6.63;;;;;;;;;;5068411;28;20116;-48
2023/12/10 10:07:05;;;;;;;6.97;6.32;;;;;;;;;;5069434;28;20039;-46
2023/12/10 10:09:36;;;;;;;9.18;5.38;;;;;;;;;;5070478;28;20040;-44
2023/12/10 10:12:02;;;;;;;8.85;6.28;;;;;;;;;;5069394;28;20640;-47
2023/12/10 10:14:27;;;;;;;8.95;7.00;;;;;;;;;;5075032;28;20041;-46
2023/12/10 10:16:53;;;;;;;7.65;5.13;;;;;;;;;;5070382;28;20040;-48
2023/12/10 10:19:18;;;;;;;9.15;4.97;;;;;;;;;;5058406;28;20039;-45
2023/12/10 10:21:44;;;;;;;10.07;6.07;;;;;;;;;;5067701;28;20603;-46
2023/12/10 10:24:10;;;;;;;5.93;5.10;;;;;;;;;;5070519;28;20067;-48
2023/12/10 10:26:37;;;;;;;10.82;5.80;;;;;;;;;;5071723;28;20098;-49
2023/12/10 10:29:07;;;;;;;7.85;5.78;;;;;;;;;;5071676;28;20033;-43
2023/12/10 10:31:33;;;;;;;8.52;6.38;;;;;;;;;;5085342;28;20025;-47
2023/12/10 10:34:04;;;;;;;8.90;6.47;;;;;;;;;;5071988;28;20071;-46
2023/12/10 10:36:30;;;;;;;8.98;6.85;;;;;;;;;;5075879;28;20027;-46
2023/12/10 10:38:56;;;;;;;6.72;4.47;;;;;;;;;;5073851;28;20187;-47
2023/12/10 10:41:22;;;;;;;8.38;5.18;;;;;;;;;;5087645;28;20043;-45
2023/12/10 10:43:48;;;;;;;7.20;4.53;;;;;;;;;;5068305;28;20604;-49
2023/12/10 10:46:19;;;;;;;9.48;5.35;;;;;;;;;;5076083;28;20060;-47
2023/12/10 10:48:44;;;;;;;9.52;6.15;;;;;;;;;;5075171;28;20123;-49
2023/12/10 10:51:11;;;;;;;8.52;4.85;;;;;;;;;;5077327;28;20064;-46
2023/12/10 10:53:38;;;;;;;8.65;4.88;;;;;;;;;;5069103;28;20040;-44
2023/12/10 10:56:05;;;;;;;7.25;4.78;;;;;;;;;;5077944;28;20027;-44
2023/12/10 10:58:30;;;;;;;8.63;5.00;;;;;;;;;;5072953;28;20040;-46
2023/12/10 11:00:57;;;;;;;7.43;4.78;;;;;;;;;;5069613;28;20080;-46
2023/12/10 11:03:29;;;;;;;7.85;4.25;;;;;;;;;;5073993;28;20048;-46
2023/12/10 11:05:57;;;;;;;7.43;5.50;;;;;;;;;;5075459;28;20024;-45
2023/12/10 11:08:25;;;;;;;9.10;5.47;;;;;;;;;;5074959;28;20098;-47
2023/12/10 11:10:58;;;;;;;9.00;6.22;;;;;;;;;;5069605;28;20021;-46
2023/12/10 11:13:46;;;;;;;11.80;4.90;;;;;;;;;;5071931;28;20040;-46
2023/12/10 11:16:12;;;;;;;10.05;6.35;;;;;;;;;;5072714;28;20034;-44
2023/12/10 11:18:51;;;;;;;8.52;5.25;;;;;;;;;;5078133;28;20502;-47
2023/12/10 11:21:17;;;;;;;16.00;7.80;;;;;;;;;;5070610;28;20085;-47
2023/12/10 11:23:42;;;;;;;7.70;5.22;;;;;;;;;;5076197;28;20055;-49
2023/12/10 11:26:08;;;;;;;7.00;5.72;;;;;;;;;;5077343;28;20024;-45
2023/12/10 11:28:34;;;;;;;6.95;5.15;;;;;;;;;;5076797;28;20401;-48
2023/12/10 11:30:59;;;;;;;8.57;5.35;;;;;;;;;;5074071;28;20017;-47
2023/12/10 11:33:25;;;;;;;10.82;5.57;;;;;;;;;;5084008;28;20093;-48
2023/12/10 11:35:50;;;;;;;6.97;4.80;;;;;;;;;;5078609;28;20028;-48
2023/12/10 11:38:16;;;;;;;5.18;3.60;;;;;;;;;;5075129;28;20541;-49
2023/12/10 11:40:42;;;;;;;5.57;3.60;;;;;;;;;;5076824;28;20036;-47
2023/12/10 11:43:08;;;;;;;5.47;2.08;;;;;;;;;;5092442;28;20499;-48
2023/12/10 11:45:35;;;;;;;8.02;4.22;;;;;;;;;;5075923;28;20024;-47
2023/12/10 11:48:01;;;;;;;5.95;2.42;;;;;;;;;;5075709;28;20036;-45
2023/12/10 11:50:27;;;;;;;7.90;3.63;;;;;;;;;;5071503;28;20510;-49
2023/12/10 11:52:53;;;;;;;8.13;3.67;;;;;;;;;;5072592;28;20147;-45
2023/12/10 11:55:19;;;;;;;8.52;2.83;;;;;;;;;;5076308;28;20056;-47
2023/12/10 11:57:44;;;;;;;7.57;4.03;;;;;;;;;;5074584;28;20466;-47
2023/12/10 12:00:13;;;;;;;8.77;4.20;;;;;;;;;;5073423;28;20440;-46
2023/12/10 12:02:41;;;;;;;4.22;2.63;;;;;;;;;;5075052;28;20029;-45
2023/12/10 12:05:15;;;;;;;7.32;2.35;;;;;;;;;;5074079;28;20448;-47
2023/12/10 12:07:41;;;;;;;8.77;3.38;;;;;;;;;;5068591;28;20032;-45
2023/12/10 12:10:08;;;;;;;6.00;2.88;;;;;;;;;;5076026;28;20056;-50
2023/12/10 12:12:38;;;;;;;19.45;8.70;;;;;;;;;;5086861;28;20378;-47
2023/12/10 12:15:04;;;;;;;6.10;4.20;;;;;;;;;;5075469;28;20111;-47
2023/12/10 12:17:29;;;;;;;13.95;5.65;;;;;;;;;;5075034;28;20048;-49
2023/12/10 12:19:54;;;;;;;10.30;5.57;;;;;;;;;;5075781;28;20033;-48
2023/12/10 12:22:20;;;;;;;8.80;5.13;;;;;;;;;;5074501;28;20099;-46
2023/12/10 12:24:45;;;;;;;9.02;3.65;;;;;;;;;;5073769;28;21038;-49
2023/12/10 12:27:11;;;;;;;7.53;3.08;;;;;;;;;;5076585;28;20489;-44
2023/12/10 12:29:36;;;;;;;5.55;2.22;;;;;;;;;;5075438;28;20452;-45
2023/12/10 12:32:03;;;;;;;7.75;4.20;;;;;;;;;;5068078;28;20051;-48
2023/12/10 12:34:29;;;;;;;5.20;2.42;;;;;;;;;;5056512;28;20029;-48
2023/12/10 12:36:54;;;;;;;11.20;3.25;;;;;;;;;;5074695;28;20035;-44
2023/12/10 12:39:20;;;;;;;6.25;2.58;;;;;;;;;;5075258;28;20078;-47
2023/12/10 12:41:47;;;;;;;8.02;1.77;;;;;;;;;;5075964;28;20029;-47
2023/12/10 12:44:13;;;;;;;8.35;2.15;;;;;;;;;;5072456;28;20079;-47
2023/12/10 12:46:40;;;;;;;6.50;2.17;;;;;;;;;;5074064;28;20024;-47
2023/12/10 12:49:05;;;;;;;6.90;1.17;;;;;;;;;;5074206;28;20422;-47
2023/12/10 12:51:32;;;;;;;4.75;1.35;;;;;;;;;;5074219;28;20067;-47
2023/12/10 12:53:58;;;;;;;7.97;1.80;;;;;;;;;;5074256;28;20047;-45
2023/12/10 12:56:24;;;;;;;6.38;3.45;;;;;;;;;;5075567;28;20032;-48
2023/12/10 12:58:49;;;;;;;5.63;1.45;;;;;;;;;;5075390;28;20564;-49
2023/12/10 13:01:15;;;;;;;7.18;1.30;;;;;;;;;;5078616;28;20489;-46
2023/12/10 13:03:41;;;;;;;7.32;1.95;;;;;;;;;;5074132;28;20102;-47
2023/12/10 13:06:07;;;;;;;7.88;2.40;;;;;;;;;;5080855;28;20062;-47
2023/12/10 13:08:33;;;;;;;4.90;2.33;;;;;;;;;;5075391;28;20494;-47
2023/12/10 13:10:58;;;;;;;10.38;3.25;;;;;;;;;;5081810;28;20205;-46
2023/12/10 13:13:24;;;;;;;5.32;1.30;;;;;;;;;;5073351;28;20048;-49
2023/12/10 13:15:49;;;;;;;6.50;1.77;;;;;;;;;;5071848;28;20028;-46
2023/12/10 13:18:15;;;;;;;4.15;1.55;;;;;;;;;;5051328;28;20037;-46
2023/12/10 13:20:41;;;;;;;5.45;1.50;;;;;;;;;;5068428;28;20028;-48
2023/12/10 13:23:06;;;;;;;5.82;1.90;;;;;;;;;;5079197;28;20029;-47
2023/12/10 13:25:33;;;;;;;4.43;0.95;;;;;;;;;;5072173;28;20496;-46
2023/12/10 13:27:58;;;;;;;7.13;2.03;;;;;;;;;;5077637;28;20037;-45
2023/12/10 13:30:24;;;;;;;5.13;1.17;;;;;;;;;;5073683;28;20037;-46
2023/12/10 13:32:49;;;;;;;6.25;2.03;;;;;;;;;;5071170;28;20020;-46
2023/12/10 13:35:15;;;;;;;12.10;3.17;;;;;;;;;;5074017;28;20039;-46
2023/12/10 13:37:40;;;;;;;4.82;1.25;;;;;;;;;;5071348;28;20033;-47
2023/12/10 13:40:06;;;;;;;4.60;1.52;;;;;;;;;;5076209;28;20024;-49
2023/12/10 13:42:32;;;;;;;6.20;2.08;;;;;;;;;;5076727;28;20028;-49
2023/12/10 13:44:58;;;;;;;8.40;2.85;;;;;;;;;;5077193;28;20394;-45
2023/12/10 13:47:23;;;;;;;8.38;1.90;;;;;;;;;;5072882;28;20025;-47
2023/12/10 13:49:48;;;;;;;6.18;1.02;;;;;;;;;;5090185;28;20449;-51
2023/12/10 13:52:14;;;;;;;6.88;1.70;;;;;;;;;;5069438;28;20045;-46
2023/12/10 13:54:39;;;;;;;6.82;2.92;;;;;;;;;;5067300;28;20067;-46
2023/12/10 13:57:05;;;;;;;8.20;1.55;;;;;;;;;;5090752;28;20031;-47
2023/12/10 13:59:30;;;;;;;5.70;1.92;;;;;;;;;;5073614;28;20029;-45
2023/12/10 14:01:55;;;;;;;4.35;1.40;;;;;;;;;;5069375;28;20088;-47
2023/12/10 14:04:22;;;;;;;5.75;1.63;;;;;;;;;;5076768;28;20037;-47
2023/12/10 14:06:47;;;;;;;8.25;3.25;;;;;;;;;;5075795;28;20097;-46
2023/12/10 14:09:14;;;;;;;7.18;1.85;;;;;;;;;;5075487;28;20096;-45
2023/12/10 14:11:58;;;;;;;7.97;2.80;;;;;;;;;;5077122;28;20024;-45
2023/12/10 14:14:23;;;;;;;6.70;1.52;;;;;;;;;;5073819;28;20033;-50
2023/12/10 14:16:49;;;;;;;6.18;1.50;;;;;;;;;;5077498;28;20025;-47
2023/12/10 14:19:14;;;;;;;9.15;1.98;;;;;;;;;;5078686;28;20037;-47
2023/12/10 14:21:40;;;;;;;4.10;1.35;;;;;;;;;;5081318;28;20035;-47
2023/12/10 14:24:05;;;;;;;8.30;2.35;;;;;;;;;;5082016;28;20386;-47
2023/12/10 14:26:30;;;;;;;8.70;3.15;;;;;;;;;;5092619;28;20036;-48
2023/12/10 14:28:57;;;;;;;7.68;2.80;;;;;;;;;;5076369;28;20092;-51